sensor_id;sensor_type;location;lat;lon;timestamp;P1;durP1;ratioP1;P2;durP2;ratioP2
35418;SDS011;21525;41.240;16.500;2022-12-22T00:01:58;15.50;;;9.60;;
35418;SDS011;21525;41.240;16.500;2022-12-22T00:04:44;14.43;;;9.23;;
35418;SDS011;21525;41.240;16.500;2022-12-22T00:07:30;14.38;;;8.90;;
35418;SDS011;21525;41.240;16.500;2022-12-22T00:10:15;13.55;;;9.68;;
35418;SDS011;21525;41.240;16.500;2022-12-22T00:12:59;14.48;;;9.60;;
35418;SDS011;21525;41.240;16.500;2022-12-22T00:15:44;12.82;;;9.15;;
35418;SDS011;21525;41.240;16.500;2022-12-22T00:18:28;11.13;;;8.45;;
35418;SDS011;21525;41.240;16.500;2022-12-22T00:21:13;14.18;;;9.50;;
35418;SDS011;21525;41.240;16.500;2022-12-22T00:23:58;13.45;;;9.30;;
35418;SDS011;21525;41.240;16.500;2022-12-22T00:26:42;14.50;;;9.45;;
35418;SDS011;21525;41.240;16.500;2022-12-22T00:29:30;15.70;;;9.30;;
35418;SDS011;21525;41.240;16.500;2022-12-22T00:32:20;13.07;;;9.30;;
35418;SDS011;21525;41.240;16.500;2022-12-22T00:35:10;13.93;;;9.38;;
35418;SDS011;21525;41.240;16.500;2022-12-22T00:37:56;15.85;;;9.50;;
35418;SDS011;21525;41.240;16.500;2022-12-22T00:40:41;12.30;;;9.05;;
35418;SDS011;21525;41.240;16.500;2022-12-22T00:43:25;16.20;;;9.80;;
35418;SDS011;21525;41.240;16.500;2022-12-22T00:46:10;16.83;;;9.80;;
35418;SDS011;21525;41.240;16.500;2022-12-22T00:48:56;13.98;;;9.32;;
35418;SDS011;21525;41.240;16.500;2022-12-22T00:51:41;13.85;;;9.05;;
35418;SDS011;21525;41.240;16.500;2022-12-22T00:54:26;15.18;;;9.27;;
35418;SDS011;21525;41.240;16.500;2022-12-22T00:57:14;14.70;;;9.82;;
35418;SDS011;21525;41.240;16.500;2022-12-22T01:00:03;14.65;;;9.95;;
35418;SDS011;21525;41.240;16.500;2022-12-22T01:02:49;13.35;;;9.07;;
35418;SDS011;21525;41.240;16.500;2022-12-22T01:05:33;14.90;;;9.38;;
35418;SDS011;21525;41.240;16.500;2022-12-22T01:08:17;12.38;;;8.95;;
35418;SDS011;21525;41.240;16.500;2022-12-22T01:11:02;13.77;;;9.57;;
35418;SDS011;21525;41.240;16.500;2022-12-22T01:13:46;12.40;;;9.00;;
35418;SDS011;21525;41.240;16.500;2022-12-22T01:16:30;13.77;;;9.57;;
35418;SDS011;21525;41.240;16.500;2022-12-22T01:19:15;13.30;;;9.40;;
35418;SDS011;21525;41.240;16.500;2022-12-22T01:21:59;11.52;;;8.68;;
35418;SDS011;21525;41.240;16.500;2022-12-22T01:24:43;13.95;;;9.77;;
35418;SDS011;21525;41.240;16.500;2022-12-22T01:27:28;15.50;;;10.38;;
35418;SDS011;21525;41.240;16.500;2022-12-22T01:30:12;14.27;;;9.93;;
35418;SDS011;21525;41.240;16.500;2022-12-22T01:32:56;13.60;;;9.48;;
35418;SDS011;21525;41.240;16.500;2022-12-22T01:35:41;15.20;;;9.38;;
35418;SDS011;21525;41.240;16.500;2022-12-22T01:38:25;14.38;;;10.35;;
35418;SDS011;21525;41.240;16.500;2022-12-22T01:41:11;16.20;;;10.63;;
35418;SDS011;21525;41.240;16.500;2022-12-22T01:43:59;13.43;;;9.77;;
35418;SDS011;21525;41.240;16.500;2022-12-22T01:46:44;15.15;;;9.88;;
35418;SDS011;21525;41.240;16.500;2022-12-22T01:49:40;13.75;;;9.85;;
35418;SDS011;21525;41.240;16.500;2022-12-22T01:52:30;12.88;;;9.02;;
35418;SDS011;21525;41.240;16.500;2022-12-22T01:55:19;12.93;;;8.82;;
35418;SDS011;21525;41.240;16.500;2022-12-22T01:58:05;14.90;;;10.00;;
35418;SDS011;21525;41.240;16.500;2022-12-22T02:00:59;13.15;;;9.88;;
35418;SDS011;21525;41.240;16.500;2022-12-22T02:03:43;13.68;;;9.35;;
35418;SDS011;21525;41.240;16.500;2022-12-22T02:06:29;14.55;;;9.45;;
35418;SDS011;21525;41.240;16.500;2022-12-22T02:15:29;14.93;;;10.07;;
35418;SDS011;21525;41.240;16.500;2022-12-22T02:25:27;13.70;;;9.15;;
35418;SDS011;21525;41.240;16.500;2022-12-22T02:28:19;12.07;;;9.30;;
35418;SDS011;21525;41.240;16.500;2022-12-22T02:31:05;14.60;;;10.23;;
35418;SDS011;21525;41.240;16.500;2022-12-22T02:33:50;13.77;;;9.55;;
35418;SDS011;21525;41.240;16.500;2022-12-22T02:42:34;15.48;;;9.27;;
35418;SDS011;21525;41.240;16.500;2022-12-22T02:45:33;20.00;;;13.93;;
35418;SDS011;21525;41.240;16.500;2022-12-22T02:48:42;26.13;;;18.67;;
35418;SDS011;21525;41.240;16.500;2022-12-22T02:51:34;19.63;;;15.43;;
35418;SDS011;21525;41.240;16.500;2022-12-22T02:54:23;19.60;;;15.40;;
35418;SDS011;21525;41.240;16.500;2022-12-22T02:57:11;14.77;;;11.25;;
35418;SDS011;21525;41.240;16.500;2022-12-22T03:00:00;17.33;;;12.35;;
35418;SDS011;21525;41.240;16.500;2022-12-22T03:02:44;16.83;;;11.25;;
35418;SDS011;21525;41.240;16.500;2022-12-22T03:05:28;14.55;;;10.63;;
35418;SDS011;21525;41.240;16.500;2022-12-22T03:08:13;16.27;;;11.38;;
35418;SDS011;21525;41.240;16.500;2022-12-22T03:10:57;17.23;;;13.27;;
35418;SDS011;21525;41.240;16.500;2022-12-22T03:13:41;21.80;;;19.45;;
35418;SDS011;21525;41.240;16.500;2022-12-22T03:16:26;39.35;;;29.10;;
35418;SDS011;21525;41.240;16.500;2022-12-22T03:19:10;22.10;;;16.50;;
35418;SDS011;21525;41.240;16.500;2022-12-22T03:21:54;19.52;;;13.63;;
35418;SDS011;21525;41.240;16.500;2022-12-22T03:24:38;19.50;;;13.65;;
35418;SDS011;21525;41.240;16.500;2022-12-22T03:27:23;18.45;;;12.88;;
35418;SDS011;21525;41.240;16.500;2022-12-22T03:29:48;16.60;;;11.93;;
35418;SDS011;21525;41.240;16.500;2022-12-22T03:32:14;16.30;;;12.18;;
35418;SDS011;21525;41.240;16.500;2022-12-22T03:34:40;17.77;;;11.27;;
35418;SDS011;21525;41.240;16.500;2022-12-22T03:37:06;14.75;;;11.13;;
35418;SDS011;21525;41.240;16.500;2022-12-22T03:39:32;17.92;;;11.00;;
35418;SDS011;21525;41.240;16.500;2022-12-22T03:41:57;14.30;;;11.23;;
35418;SDS011;21525;41.240;16.500;2022-12-22T03:44:42;17.25;;;10.98;;
35418;SDS011;21525;41.240;16.500;2022-12-22T03:47:26;15.30;;;11.30;;
35418;SDS011;21525;41.240;16.500;2022-12-22T03:49:52;15.60;;;11.20;;
35418;SDS011;21525;41.240;16.500;2022-12-22T03:52:18;15.73;;;10.93;;
35418;SDS011;21525;41.240;16.500;2022-12-22T03:54:43;15.63;;;11.02;;
35418;SDS011;21525;41.240;16.500;2022-12-22T03:57:09;14.48;;;10.88;;
35418;SDS011;21525;41.240;16.500;2022-12-22T03:59:35;16.23;;;11.10;;
35418;SDS011;21525;41.240;16.500;2022-12-22T04:02:01;18.70;;;11.90;;
35418;SDS011;21525;41.240;16.500;2022-12-22T04:04:27;15.98;;;11.25;;
35418;SDS011;21525;41.240;16.500;2022-12-22T04:06:53;17.70;;;12.55;;
35418;SDS011;21525;41.240;16.500;2022-12-22T04:09:19;19.63;;;12.52;;
35418;SDS011;21525;41.240;16.500;2022-12-22T04:11:46;16.55;;;12.43;;
35418;SDS011;21525;41.240;16.500;2022-12-22T04:14:31;24.88;;;12.45;;
35418;SDS011;21525;41.240;16.500;2022-12-22T04:16:57;18.40;;;13.45;;
35418;SDS011;21525;41.240;16.500;2022-12-22T04:19:22;17.98;;;13.02;;
35418;SDS011;21525;41.240;16.500;2022-12-22T04:21:49;18.60;;;12.63;;
35418;SDS011;21525;41.240;16.500;2022-12-22T04:24:15;16.83;;;12.40;;
35418;SDS011;21525;41.240;16.500;2022-12-22T04:26:41;17.92;;;12.93;;
35418;SDS011;21525;41.240;16.500;2022-12-22T04:29:07;19.05;;;13.05;;
35418;SDS011;21525;41.240;16.500;2022-12-22T04:31:32;15.88;;;12.80;;
35418;SDS011;21525;41.240;16.500;2022-12-22T04:33:58;17.73;;;12.82;;
35418;SDS011;21525;41.240;16.500;2022-12-22T04:36:24;21.10;;;12.88;;
35418;SDS011;21525;41.240;16.500;2022-12-22T04:38:50;18.45;;;13.50;;
35418;SDS011;21525;41.240;16.500;2022-12-22T04:41:15;21.65;;;13.13;;
35418;SDS011;21525;41.240;16.500;2022-12-22T04:43:41;17.40;;;12.90;;
35418;SDS011;21525;41.240;16.500;2022-12-22T04:46:07;21.73;;;13.23;;
35418;SDS011;21525;41.240;16.500;2022-12-22T04:48:33;17.98;;;13.27;;
35418;SDS011;21525;41.240;16.500;2022-12-22T04:50:59;19.77;;;12.93;;
35418;SDS011;21525;41.240;16.500;2022-12-22T04:53:25;19.98;;;13.75;;
35418;SDS011;21525;41.240;16.500;2022-12-22T04:55:54;17.50;;;12.48;;
35418;SDS011;21525;41.240;16.500;2022-12-22T04:58:22;18.90;;;12.70;;
35418;SDS011;21525;41.240;16.500;2022-12-22T05:00:48;18.83;;;13.65;;
35418;SDS011;21525;41.240;16.500;2022-12-22T05:03:14;17.75;;;12.82;;
35418;SDS011;21525;41.240;16.500;2022-12-22T05:05:40;17.10;;;13.10;;
35418;SDS011;21525;41.240;16.500;2022-12-22T05:08:05;19.02;;;13.65;;
35418;SDS011;21525;41.240;16.500;2022-12-22T05:10:33;19.58;;;13.05;;
35418;SDS011;21525;41.240;16.500;2022-12-22T05:12:58;18.73;;;13.75;;
35418;SDS011;21525;41.240;16.500;2022-12-22T05:15:25;20.00;;;12.95;;
35418;SDS011;21525;41.240;16.500;2022-12-22T05:20:20;21.45;;;12.93;;
35418;SDS011;21525;41.240;16.500;2022-12-22T05:22:46;17.80;;;13.13;;
35418;SDS011;21525;41.240;16.500;2022-12-22T05:25:11;19.67;;;13.75;;
35418;SDS011;21525;41.240;16.500;2022-12-22T05:27:41;20.55;;;15.68;;
35418;SDS011;21525;41.240;16.500;2022-12-22T05:30:12;22.65;;;17.35;;
35418;SDS011;21525;41.240;16.500;2022-12-22T05:32:38;25.23;;;17.65;;
35418;SDS011;21525;41.240;16.500;2022-12-22T05:35:05;29.13;;;19.50;;
35418;SDS011;21525;41.240;16.500;2022-12-22T05:37:31;27.42;;;21.33;;
35418;SDS011;21525;41.240;16.500;2022-12-22T05:39:57;29.35;;;23.10;;
35418;SDS011;21525;41.240;16.500;2022-12-22T05:42:23;29.70;;;22.00;;
35418;SDS011;21525;41.240;16.500;2022-12-22T05:45:12;55.10;;;39.65;;
35418;SDS011;21525;41.240;16.500;2022-12-22T05:47:39;82.18;;;61.63;;
35418;SDS011;21525;41.240;16.500;2022-12-22T05:50:06;61.30;;;46.33;;
35418;SDS011;21525;41.240;16.500;2022-12-22T05:52:33;167.73;;;112.50;;
35418;SDS011;21525;41.240;16.500;2022-12-22T05:54:59;117.78;;;84.28;;
35418;SDS011;21525;41.240;16.500;2022-12-22T05:57:25;88.20;;;60.85;;
35418;SDS011;21525;41.240;16.500;2022-12-22T05:59:50;76.00;;;52.63;;
35418;SDS011;21525;41.240;16.500;2022-12-22T06:02:16;47.35;;;34.17;;
35418;SDS011;21525;41.240;16.500;2022-12-22T06:04:42;44.15;;;30.27;;
35418;SDS011;21525;41.240;16.500;2022-12-22T06:07:08;30.75;;;24.52;;
35418;SDS011;21525;41.240;16.500;2022-12-22T06:09:33;33.17;;;21.30;;
35418;SDS011;21525;41.240;16.500;2022-12-22T06:11:59;32.53;;;21.73;;
35418;SDS011;21525;41.240;16.500;2022-12-22T06:14:25;32.42;;;23.77;;
35418;SDS011;21525;41.240;16.500;2022-12-22T06:16:51;33.28;;;23.33;;
35418;SDS011;21525;41.240;16.500;2022-12-22T06:19:17;32.13;;;23.33;;
35418;SDS011;21525;41.240;16.500;2022-12-22T06:21:42;34.72;;;21.73;;
35418;SDS011;21525;41.240;16.500;2022-12-22T06:24:08;43.85;;;30.45;;
35418;SDS011;21525;41.240;16.500;2022-12-22T06:26:34;60.97;;;40.03;;
35418;SDS011;21525;41.240;16.500;2022-12-22T06:29:00;59.30;;;39.28;;
35418;SDS011;21525;41.240;16.500;2022-12-22T06:31:25;51.22;;;34.88;;
35418;SDS011;21525;41.240;16.500;2022-12-22T06:33:51;47.55;;;32.20;;
35418;SDS011;21525;41.240;16.500;2022-12-22T06:36:17;42.67;;;30.55;;
35418;SDS011;21525;41.240;16.500;2022-12-22T06:38:43;47.97;;;30.65;;
35418;SDS011;21525;41.240;16.500;2022-12-22T06:41:09;48.97;;;29.92;;
35418;SDS011;21525;41.240;16.500;2022-12-22T06:43:34;41.72;;;28.08;;
35418;SDS011;21525;41.240;16.500;2022-12-22T06:46:00;49.92;;;29.33;;
35418;SDS011;21525;41.240;16.500;2022-12-22T06:48:26;44.60;;;29.08;;
35418;SDS011;21525;41.240;16.500;2022-12-22T06:50:56;50.33;;;33.90;;
35418;SDS011;21525;41.240;16.500;2022-12-22T06:53:22;56.33;;;35.83;;
35418;SDS011;21525;41.240;16.500;2022-12-22T06:55:48;56.53;;;36.58;;
35418;SDS011;21525;41.240;16.500;2022-12-22T06:58:14;52.15;;;34.55;;
35418;SDS011;21525;41.240;16.500;2022-12-22T07:00:40;54.17;;;33.78;;
35418;SDS011;21525;41.240;16.500;2022-12-22T07:03:05;55.47;;;35.03;;
35418;SDS011;21525;41.240;16.500;2022-12-22T07:05:31;63.92;;;36.90;;
35418;SDS011;21525;41.240;16.500;2022-12-22T07:07:57;65.93;;;42.28;;
35418;SDS011;21525;41.240;16.500;2022-12-22T07:10:23;77.80;;;47.05;;
35418;SDS011;21525;41.240;16.500;2022-12-22T07:13:09;90.68;;;57.53;;
35418;SDS011;21525;41.240;16.500;2022-12-22T07:15:49;90.82;;;61.45;;
35418;SDS011;21525;41.240;16.500;2022-12-22T07:18:16;103.65;;;67.20;;
35418;SDS011;21525;41.240;16.500;2022-12-22T07:20:42;109.00;;;74.13;;
35418;SDS011;21525;41.240;16.500;2022-12-22T07:23:08;108.20;;;73.32;;
35418;SDS011;21525;41.240;16.500;2022-12-22T07:25:33;102.13;;;71.35;;
35418;SDS011;21525;41.240;16.500;2022-12-22T07:27:59;101.03;;;74.07;;
35418;SDS011;21525;41.240;16.500;2022-12-22T07:30:25;102.68;;;73.38;;
35418;SDS011;21525;41.240;16.500;2022-12-22T07:32:51;105.38;;;72.90;;
35418;SDS011;21525;41.240;16.500;2022-12-22T07:35:17;100.07;;;70.60;;
35418;SDS011;21525;41.240;16.500;2022-12-22T07:37:42;111.90;;;82.43;;
35418;SDS011;21525;41.240;16.500;2022-12-22T07:40:08;115.18;;;86.43;;
35418;SDS011;21525;41.240;16.500;2022-12-22T07:42:34;112.97;;;87.22;;
35418;SDS011;21525;41.240;16.500;2022-12-22T07:45:13;107.28;;;82.32;;
35418;SDS011;21525;41.240;16.500;2022-12-22T07:47:40;97.80;;;74.00;;
35418;SDS011;21525;41.240;16.500;2022-12-22T07:50:08;97.78;;;74.45;;
35418;SDS011;21525;41.240;16.500;2022-12-22T07:53:01;93.18;;;70.05;;
35418;SDS011;21525;41.240;16.500;2022-12-22T07:55:30;90.95;;;70.47;;
35418;SDS011;21525;41.240;16.500;2022-12-22T07:57:59;97.18;;;73.18;;
35418;SDS011;21525;41.240;16.500;2022-12-22T08:00:25;101.53;;;78.00;;
35418;SDS011;21525;41.240;16.500;2022-12-22T08:02:52;103.47;;;80.75;;
35418;SDS011;21525;41.240;16.500;2022-12-22T08:05:20;97.68;;;76.47;;
35418;SDS011;21525;41.240;16.500;2022-12-22T08:07:47;87.03;;;66.68;;
35418;SDS011;21525;41.240;16.500;2022-12-22T08:10:16;86.03;;;64.23;;
35418;SDS011;21525;41.240;16.500;2022-12-22T08:12:42;78.78;;;60.00;;
35418;SDS011;21525;41.240;16.500;2022-12-22T08:15:08;73.00;;;54.08;;
35418;SDS011;21525;41.240;16.500;2022-12-22T08:17:35;69.68;;;52.28;;
35418;SDS011;21525;41.240;16.500;2022-12-22T08:20:01;61.75;;;44.72;;
35418;SDS011;21525;41.240;16.500;2022-12-22T08:22:27;51.67;;;39.40;;
35418;SDS011;21525;41.240;16.500;2022-12-22T08:24:54;54.28;;;37.80;;
35418;SDS011;21525;41.240;16.500;2022-12-22T08:29:57;43.00;;;32.30;;
35418;SDS011;21525;41.240;16.500;2022-12-22T08:32:25;40.00;;;30.10;;
35418;SDS011;21525;41.240;16.500;2022-12-22T08:34:51;41.88;;;32.95;;
35418;SDS011;21525;41.240;16.500;2022-12-22T08:37:19;50.88;;;34.50;;
35418;SDS011;21525;41.240;16.500;2022-12-22T08:39:49;45.30;;;34.00;;
35418;SDS011;21525;41.240;16.500;2022-12-22T08:42:19;47.58;;;34.17;;
35418;SDS011;21525;41.240;16.500;2022-12-22T08:44:46;48.00;;;34.53;;
35418;SDS011;21525;41.240;16.500;2022-12-22T08:47:20;41.35;;;30.73;;
35418;SDS011;21525;41.240;16.500;2022-12-22T08:49:47;33.40;;;23.65;;
35418;SDS011;21525;41.240;16.500;2022-12-22T08:52:15;34.30;;;25.45;;
35418;SDS011;21525;41.240;16.500;2022-12-22T08:54:41;29.10;;;21.63;;
35418;SDS011;21525;41.240;16.500;2022-12-22T08:57:08;31.95;;;21.58;;
35418;SDS011;21525;41.240;16.500;2022-12-22T08:59:34;27.98;;;19.70;;
35418;SDS011;21525;41.240;16.500;2022-12-22T09:02:00;31.25;;;20.75;;
35418;SDS011;21525;41.240;16.500;2022-12-22T09:04:29;28.17;;;19.25;;
35418;SDS011;21525;41.240;16.500;2022-12-22T09:06:56;25.60;;;17.95;;
35418;SDS011;21525;41.240;16.500;2022-12-22T09:09:22;26.17;;;18.35;;
35418;SDS011;21525;41.240;16.500;2022-12-22T09:11:48;29.02;;;18.65;;
35418;SDS011;21525;41.240;16.500;2022-12-22T09:14:14;34.28;;;23.67;;
35418;SDS011;21525;41.240;16.500;2022-12-22T09:16:40;65.07;;;34.50;;
35418;SDS011;21525;41.240;16.500;2022-12-22T09:19:07;36.70;;;21.90;;
35418;SDS011;21525;41.240;16.500;2022-12-22T09:21:33;29.20;;;18.77;;
35418;SDS011;21525;41.240;16.500;2022-12-22T09:23:59;27.05;;;17.40;;
35418;SDS011;21525;41.240;16.500;2022-12-22T09:26:26;26.05;;;15.02;;
35418;SDS011;21525;41.240;16.500;2022-12-22T09:28:53;26.63;;;16.23;;
35418;SDS011;21525;41.240;16.500;2022-12-22T09:31:20;21.80;;;13.77;;
35418;SDS011;21525;41.240;16.500;2022-12-22T09:33:47;23.85;;;15.60;;
35418;SDS011;21525;41.240;16.500;2022-12-22T09:36:14;25.55;;;15.25;;
35418;SDS011;21525;41.240;16.500;2022-12-22T09:38:43;19.08;;;13.52;;
35418;SDS011;21525;41.240;16.500;2022-12-22T09:43:53;21.65;;;13.80;;
35418;SDS011;21525;41.240;16.500;2022-12-22T09:46:24;24.58;;;13.90;;
35418;SDS011;21525;41.240;16.500;2022-12-22T09:48:52;23.02;;;14.10;;
35418;SDS011;21525;41.240;16.500;2022-12-22T09:51:19;20.08;;;12.77;;
35418;SDS011;21525;41.240;16.500;2022-12-22T09:53:47;17.90;;;11.57;;
35418;SDS011;21525;41.240;16.500;2022-12-22T09:56:25;29.80;;;13.35;;
35418;SDS011;21525;41.240;16.500;2022-12-22T09:58:52;25.90;;;13.40;;
35418;SDS011;21525;41.240;16.500;2022-12-22T10:07:00;22.63;;;14.75;;
35418;SDS011;21525;41.240;16.500;2022-12-22T10:09:28;20.08;;;11.68;;
35418;SDS011;21525;41.240;16.500;2022-12-22T10:11:58;16.80;;;9.75;;
35418;SDS011;21525;41.240;16.500;2022-12-22T10:14:39;13.32;;;9.75;;
35418;SDS011;21525;41.240;16.500;2022-12-22T10:17:25;15.80;;;10.35;;
35418;SDS011;21525;41.240;16.500;2022-12-22T10:19:54;19.25;;;13.95;;
35418;SDS011;21525;41.240;16.500;2022-12-22T10:22:35;19.92;;;10.40;;
35418;SDS011;21525;41.240;16.500;2022-12-22T10:25:22;18.58;;;8.00;;
35418;SDS011;21525;41.240;16.500;2022-12-22T10:27:51;15.57;;;7.80;;
35418;SDS011;21525;41.240;16.500;2022-12-22T10:38:24;17.13;;;10.40;;
35418;SDS011;21525;41.240;16.500;2022-12-22T10:41:16;16.27;;;8.45;;
35418;SDS011;21525;41.240;16.500;2022-12-22T10:46:14;15.77;;;9.52;;
35418;SDS011;21525;41.240;16.500;2022-12-22T10:48:41;17.20;;;13.00;;
35418;SDS011;21525;41.240;16.500;2022-12-22T10:51:08;23.27;;;13.40;;
35418;SDS011;21525;41.240;16.500;2022-12-22T10:53:40;24.50;;;15.98;;
35418;SDS011;21525;41.240;16.500;2022-12-22T10:56:20;27.27;;;17.88;;
35418;SDS011;21525;41.240;16.500;2022-12-22T11:01:22;22.95;;;17.33;;
35418;SDS011;21525;41.240;16.500;2022-12-22T11:03:50;20.85;;;15.43;;
35418;SDS011;21525;41.240;16.500;2022-12-22T11:06:16;28.65;;;17.35;;
35418;SDS011;21525;41.240;16.500;2022-12-22T11:08:41;43.70;;;16.55;;
35418;SDS011;21525;41.240;16.500;2022-12-22T11:11:16;25.17;;;14.50;;
35418;SDS011;21525;41.240;16.500;2022-12-22T11:19:16;19.13;;;13.90;;
35418;SDS011;21525;41.240;16.500;2022-12-22T11:24:44;25.35;;;13.00;;
35418;SDS011;21525;41.240;16.500;2022-12-22T11:36:28;20.85;;;13.48;;
35418;SDS011;21525;41.240;16.500;2022-12-22T11:39:19;21.88;;;13.77;;
35418;SDS011;21525;41.240;16.500;2022-12-22T11:44:48;21.17;;;14.68;;
35418;SDS011;21525;41.240;16.500;2022-12-22T11:50:53;29.70;;;14.82;;
35418;SDS011;21525;41.240;16.500;2022-12-22T12:18:11;27.45;;;14.65;;
35418;SDS011;21525;41.240;16.500;2022-12-22T12:23:43;31.75;;;14.05;;
35418;SDS011;21525;41.240;16.500;2022-12-22T12:26:18;17.92;;;11.60;;
35418;SDS011;21525;41.240;16.500;2022-12-22T12:34:30;31.70;;;13.30;;
35418;SDS011;21525;41.240;16.500;2022-12-22T12:44:59;19.50;;;10.02;;
35418;SDS011;21525;41.240;16.500;2022-12-22T12:57:55;18.17;;;11.00;;
35418;SDS011;21525;41.240;16.500;2022-12-22T13:02:58;12.20;;;9.13;;
35418;SDS011;21525;41.240;16.500;2022-12-22T13:05:33;14.48;;;10.07;;
35418;SDS011;21525;41.240;16.500;2022-12-22T13:15:46;14.63;;;9.55;;
35418;SDS011;21525;41.240;16.500;2022-12-22T13:23:40;17.50;;;9.98;;
35418;SDS011;21525;41.240;16.500;2022-12-22T13:26:14;13.48;;;10.10;;
35418;SDS011;21525;41.240;16.500;2022-12-22T13:28:42;13.38;;;9.82;;
35418;SDS011;21525;41.240;16.500;2022-12-22T13:31:15;16.33;;;10.50;;
35418;SDS011;21525;41.240;16.500;2022-12-22T13:33:44;15.90;;;10.38;;
35418;SDS011;21525;41.240;16.500;2022-12-22T13:36:20;15.15;;;9.75;;
35418;SDS011;21525;41.240;16.500;2022-12-22T13:39:01;23.70;;;11.27;;
35418;SDS011;21525;41.240;16.500;2022-12-22T13:41:29;17.10;;;10.32;;
35418;SDS011;21525;41.240;16.500;2022-12-22T13:44:05;16.42;;;10.15;;
35418;SDS011;21525;41.240;16.500;2022-12-22T13:46:36;15.75;;;11.25;;
35418;SDS011;21525;41.240;16.500;2022-12-22T13:49:03;17.33;;;10.30;;
35418;SDS011;21525;41.240;16.500;2022-12-22T13:51:34;25.33;;;11.93;;
35418;SDS011;21525;41.240;16.500;2022-12-22T13:54:03;14.70;;;10.30;;
35418;SDS011;21525;41.240;16.500;2022-12-22T13:56:42;17.30;;;9.88;;
35418;SDS011;21525;41.240;16.500;2022-12-22T13:59:15;11.23;;;8.63;;
35418;SDS011;21525;41.240;16.500;2022-12-22T14:02:11;16.58;;;9.23;;
35418;SDS011;21525;41.240;16.500;2022-12-22T14:04:41;13.45;;;9.55;;
35418;SDS011;21525;41.240;16.500;2022-12-22T14:07:18;18.65;;;11.00;;
35418;SDS011;21525;41.240;16.500;2022-12-22T14:09:48;14.45;;;10.02;;
35418;SDS011;21525;41.240;16.500;2022-12-22T14:12:17;13.55;;;7.95;;
35418;SDS011;21525;41.240;16.500;2022-12-22T14:14:45;10.80;;;7.57;;
35418;SDS011;21525;41.240;16.500;2022-12-22T14:17:34;14.13;;;7.00;;
35418;SDS011;21525;41.240;16.500;2022-12-22T14:20:17;15.17;;;8.23;;
35418;SDS011;21525;41.240;16.500;2022-12-22T14:23:24;13.15;;;8.77;;
35418;SDS011;21525;41.240;16.500;2022-12-22T14:25:56;11.80;;;8.50;;
35418;SDS011;21525;41.240;16.500;2022-12-22T14:28:42;13.60;;;8.25;;
35418;SDS011;21525;41.240;16.500;2022-12-22T14:31:15;15.85;;;9.20;;
35418;SDS011;21525;41.240;16.500;2022-12-22T14:33:55;13.13;;;9.60;;
35418;SDS011;21525;41.240;16.500;2022-12-22T14:36:37;11.00;;;8.88;;
35418;SDS011;21525;41.240;16.500;2022-12-22T14:39:09;12.40;;;8.45;;
35418;SDS011;21525;41.240;16.500;2022-12-22T14:41:49;11.55;;;8.35;;
35418;SDS011;21525;41.240;16.500;2022-12-22T14:44:21;10.55;;;8.35;;
35418;SDS011;21525;41.240;16.500;2022-12-22T14:54:45;12.95;;;8.48;;
35418;SDS011;21525;41.240;16.500;2022-12-22T14:59:42;10.93;;;7.93;;
35418;SDS011;21525;41.240;16.500;2022-12-22T15:02:26;12.77;;;8.27;;
35418;SDS011;21525;41.240;16.500;2022-12-22T15:07:51;11.68;;;8.32;;
35418;SDS011;21525;41.240;16.500;2022-12-22T15:10:20;12.68;;;8.77;;
35418;SDS011;21525;41.240;16.500;2022-12-22T15:12:46;18.95;;;12.85;;
35418;SDS011;21525;41.240;16.500;2022-12-22T15:15:14;20.92;;;12.70;;
35418;SDS011;21525;41.240;16.500;2022-12-22T15:17:43;16.38;;;12.70;;
35418;SDS011;21525;41.240;16.500;2022-12-22T15:20:29;30.80;;;13.95;;
35418;SDS011;21525;41.240;16.500;2022-12-22T15:22:55;17.92;;;11.77;;
35418;SDS011;21525;41.240;16.500;2022-12-22T15:25:21;14.45;;;10.05;;
35418;SDS011;21525;41.240;16.500;2022-12-22T15:27:49;13.18;;;9.93;;
35418;SDS011;21525;41.240;16.500;2022-12-22T15:30:16;16.35;;;10.35;;
35418;SDS011;21525;41.240;16.500;2022-12-22T15:32:45;19.77;;;11.70;;
35418;SDS011;21525;41.240;16.500;2022-12-22T15:35:22;22.85;;;14.40;;
35418;SDS011;21525;41.240;16.500;2022-12-22T15:37:52;19.15;;;12.27;;
35418;SDS011;21525;41.240;16.500;2022-12-22T15:40:19;19.08;;;13.02;;
35418;SDS011;21525;41.240;16.500;2022-12-22T15:42:46;16.75;;;13.00;;
35418;SDS011;21525;41.240;16.500;2022-12-22T15:45:13;17.65;;;13.25;;
35418;SDS011;21525;41.240;16.500;2022-12-22T15:47:40;20.50;;;13.07;;
35418;SDS011;21525;41.240;16.500;2022-12-22T15:50:18;20.75;;;13.23;;
35418;SDS011;21525;41.240;16.500;2022-12-22T15:52:48;19.13;;;12.55;;
35418;SDS011;21525;41.240;16.500;2022-12-22T15:55:17;18.23;;;13.07;;
35418;SDS011;21525;41.240;16.500;2022-12-22T15:57:44;26.20;;;12.30;;
35418;SDS011;21525;41.240;16.500;2022-12-22T16:00:15;25.40;;;12.43;;
35418;SDS011;21525;41.240;16.500;2022-12-22T16:02:42;21.73;;;14.95;;
35418;SDS011;21525;41.240;16.500;2022-12-22T16:05:08;22.08;;;13.02;;
35418;SDS011;21525;41.240;16.500;2022-12-22T16:07:36;26.33;;;14.93;;
35418;SDS011;21525;41.240;16.500;2022-12-22T16:10:03;26.10;;;15.80;;
35418;SDS011;21525;41.240;16.500;2022-12-22T16:12:32;31.85;;;17.95;;
35418;SDS011;21525;41.240;16.500;2022-12-22T16:14:58;27.08;;;17.00;;
35418;SDS011;21525;41.240;16.500;2022-12-22T16:17:26;26.67;;;16.95;;
35418;SDS011;21525;41.240;16.500;2022-12-22T16:19:53;26.65;;;17.73;;
35418;SDS011;21525;41.240;16.500;2022-12-22T16:22:20;27.23;;;16.20;;
35418;SDS011;21525;41.240;16.500;2022-12-22T16:24:56;23.13;;;14.68;;
35418;SDS011;21525;41.240;16.500;2022-12-22T16:27:22;25.75;;;16.60;;
35418;SDS011;21525;41.240;16.500;2022-12-22T16:29:49;32.45;;;18.13;;
35418;SDS011;21525;41.240;16.500;2022-12-22T16:34:48;34.58;;;18.75;;
35418;SDS011;21525;41.240;16.500;2022-12-22T16:37:14;33.00;;;19.73;;
35418;SDS011;21525;41.240;16.500;2022-12-22T16:39:40;39.25;;;22.05;;
35418;SDS011;21525;41.240;16.500;2022-12-22T16:42:11;37.67;;;22.80;;
35418;SDS011;21525;41.240;16.500;2022-12-22T16:44:38;40.13;;;22.15;;
35418;SDS011;21525;41.240;16.500;2022-12-22T16:47:05;36.05;;;20.70;;
35418;SDS011;21525;41.240;16.500;2022-12-22T16:49:31;34.15;;;21.00;;
35418;SDS011;21525;41.240;16.500;2022-12-22T16:51:57;32.83;;;20.95;;
35418;SDS011;21525;41.240;16.500;2022-12-22T16:54:24;33.22;;;21.17;;
35418;SDS011;21525;41.240;16.500;2022-12-22T16:56:50;34.83;;;22.65;;
35418;SDS011;21525;41.240;16.500;2022-12-22T16:59:16;39.65;;;23.20;;
35418;SDS011;21525;41.240;16.500;2022-12-22T17:04:20;29.48;;;17.58;;
35418;SDS011;21525;41.240;16.500;2022-12-22T17:06:50;31.50;;;20.58;;
35418;SDS011;21525;41.240;16.500;2022-12-22T17:09:19;30.80;;;19.90;;
35418;SDS011;21525;41.240;16.500;2022-12-22T17:11:49;34.28;;;21.05;;
35418;SDS011;21525;41.240;16.500;2022-12-22T17:16:56;39.95;;;25.27;;
35418;SDS011;21525;41.240;16.500;2022-12-22T17:19:22;30.85;;;21.33;;
35418;SDS011;21525;41.240;16.500;2022-12-22T17:21:48;31.48;;;20.92;;